KWJF/WJF METAR and TAF weather

Enter ICAO airport designator
Station Type Date Time Source
KWJF METAR 2020/01/28 20:56 UTC NOAA

KWJF 282056Z 28014KT 10SM CLR 18/M04 A3017 RMK AO2 PRESFR SLP215 T01831039 58034


Station Type Date Time Source
KWJF Decoded METAR 2020/01/28 20:56 UTC NOAA

LANCASTER FOX AIRFIELD, CA, United States (KWJF) 34-44N 118-13W
Jan 28, 2020 - 03:56 PM EST / 2020.01.28 2056 UTC
Wind: from the W (280 degrees) at 16 MPH (14 KT):0
Visibility: 10 mile(s):0
Sky conditions: clear
Temperature: 64.9 F (18.3 C)
Dew Point: 25.0 F (-3.9 C)
Relative Humidity: 21%
Pressure (altimeter): 30.17 in. Hg (1021 hPa)
Pressure tendency: falling rapidly - 0.10 inches (3.4 hPa) lower than three hours ago
ob: KWJF 282056Z 28014KT 10SM CLR 18/M04 A3017 RMK AO2 PRESFR SLP215 T01831039 58034
cycle: 21

Station Type Date Time Source
KWJF TAF 2020/01/28 18:45 UTC NOAA

TAF KWJF 281740Z 2818/2918 27008KT P6SM SCT250
FM282000 27014G20KT P6SM SCT250
FM282300 27022G30KT P6SM SCT250
FM290800 28018G23KT P6SM SCT250
FM291200 28012KT P6SM SCT250
FM291500 29009KT P6SM SCT250

Example: see airport list